Time;durP1;ratioP1;P1;durP2;ratioP2;P2;SDS_P1;SDS_P2;PMS_P1;PMS_P2;Temp;Humidity;BMP_temperature;BMP_pressure;BME280_temperature;BME280_humidity;BME280_pressure;Samples;Min_cycle;Max_cycle;Signal;HPM_P1;HPM_P2
2022/01/23 00:02:08;;;;;;;35.43;18.10;;;;;;;;;;5033967;28;20371;-69
2022/01/23 00:04:35;;;;;;;28.83;16.20;;;;;;;;;;5034128;28;20415;-69
2022/01/23 00:07:06;;;;;;;30.53;18.87;;;;;;;;;;5032778;28;20403;-69
2022/01/23 00:09:32;;;;;;;24.77;15.50;;;;;;;;;;5033817;28;20884;-69
2022/01/23 00:12:03;;;;;;;35.60;16.47;;;;;;;;;;5033724;28;20399;-69
2022/01/23 00:19:40;;;;;;;26.50;15.93;;;;;;;;;;5033625;28;20973;-69
2022/01/23 00:22:09;;;;;;;26.33;14.47;;;;;;;;;;5033337;28;20410;-69
2022/01/23 00:30:25;;;;;;;24.33;14.60;;;;;;;;;;5033352;28;20405;-69
2022/01/23 00:32:52;;;;;;;29.13;15.90;;;;;;;;;;5034031;28;20390;-69
2022/01/23 00:35:18;;;;;;;27.60;15.27;;;;;;;;;;5037189;28;20397;-69
2022/01/23 00:37:44;;;;;;;28.17;16.03;;;;;;;;;;5037257;28;20394;-69
2022/01/23 00:40:11;;;;;;;22.77;15.23;;;;;;;;;;5037299;28;20418;-69
2022/01/23 00:42:37;;;;;;;24.77;14.67;;;;;;;;;;5037526;28;20383;-69
2022/01/23 00:47:50;;;;;;;25.57;14.40;;;;;;;;;;5037197;28;20378;-69
2022/01/23 00:50:16;;;;;;;30.77;17.30;;;;;;;;;;5037085;28;20469;-69
2022/01/23 00:52:42;;;;;;;23.00;13.53;;;;;;;;;;5037130;28;20399;-68
2022/01/23 00:55:09;;;;;;;31.03;14.63;;;;;;;;;;5037272;28;20406;-69
2022/01/23 00:57:35;;;;;;;24.80;15.07;;;;;;;;;;5037305;28;20871;-68
2022/01/23 01:00:05;;;;;;;23.97;14.07;;;;;;;;;;5037775;28;20927;-68
2022/01/23 01:02:31;;;;;;;27.73;14.60;;;;;;;;;;5038082;28;20757;-68
2022/01/23 01:04:57;;;;;;;29.27;14.40;;;;;;;;;;5037770;28;20399;-68
2022/01/23 01:07:23;;;;;;;24.40;14.33;;;;;;;;;;5037225;28;20446;-69
2022/01/23 01:09:52;;;;;;;26.87;14.57;;;;;;;;;;5037166;28;20815;-68
2022/01/23 01:12:28;;;;;;;24.57;14.57;;;;;;;;;;5037358;28;20411;-69
2022/01/23 01:31:34;;;;;;;21.97;13.70;;;;;;;;;;5049931;22;20482;-70
2022/01/23 01:36:37;;;;;;;26.83;14.90;;;;;;;;;;5016377;28;20400;-70
2022/01/23 01:39:07;;;;;;;20.47;13.03;;;;;;;;;;5016241;28;20391;-70
2022/01/23 01:41:36;;;;;;;27.37;15.83;;;;;;;;;;5016103;28;20767;-70
2022/01/23 01:44:03;;;;;;;19.77;10.97;;;;;;;;;;5015829;28;20907;-70
2022/01/23 01:46:29;;;;;;;18.57;12.27;;;;;;;;;;5015071;28;20392;-70
2022/01/23 01:48:55;;;;;;;26.87;13.37;;;;;;;;;;5015744;28;20541;-70
2022/01/23 01:51:21;;;;;;;18.83;12.17;;;;;;;;;;5015911;28;20427;-70
2022/01/23 01:53:56;;;;;;;23.83;12.90;;;;;;;;;;5015672;28;20427;-70
2022/01/23 01:56:22;;;;;;;22.83;14.13;;;;;;;;;;5015883;28;20384;-70
2022/01/23 02:09:17;;;;;;;23.63;13.70;;;;;;;;;;5015408;28;20449;-70
2022/01/23 02:57:32;;;;;;;21.00;12.73;;;;;;;;;;5014407;28;20400;-70
2022/01/23 02:59:58;;;;;;;23.70;15.40;;;;;;;;;;5014745;28;20388;-70
2022/01/23 03:02:36;;;;;;;20.07;13.57;;;;;;;;;;5014513;28;20427;-70
2022/01/23 03:05:04;;;;;;;23.87;14.87;;;;;;;;;;5014416;28;20402;-70
2022/01/23 03:10:05;;;;;;;20.87;13.27;;;;;;;;;;5014457;28;20522;-70
2022/01/23 03:26:38;;;;;;;26.40;13.93;;;;;;;;;;5014417;28;20382;-70
2022/01/23 03:33:44;;;;;;;21.97;14.23;;;;;;;;;;5014134;28;20407;-70
2022/01/23 03:36:10;;;;;;;30.20;15.73;;;;;;;;;;5014056;28;20431;-70
2022/01/23 03:38:37;;;;;;;20.43;13.37;;;;;;;;;;5013752;28;20406;-70
2022/01/23 03:41:03;;;;;;;21.93;13.90;;;;;;;;;;5013593;28;20510;-70
2022/01/23 03:43:33;;;;;;;22.70;14.47;;;;;;;;;;5013934;28;20874;-70
2022/01/23 03:50:52;;;;;;;23.97;14.40;;;;;;;;;;5013785;28;20904;-70
2022/01/23 03:53:18;;;;;;;26.87;15.30;;;;;;;;;;5013772;28;20415;-70
2022/01/23 03:55:45;;;;;;;22.80;13.43;;;;;;;;;;5012309;28;20420;-72
2022/01/23 03:58:11;;;;;;;21.70;13.90;;;;;;;;;;5013516;28;20462;-70
2022/01/23 04:00:37;;;;;;;19.27;13.20;;;;;;;;;;5013660;28;20793;-70
2022/01/23 04:03:03;;;;;;;15.00;9.93;;;;;;;;;;5013514;28;20811;-70
2022/01/23 04:05:29;;;;;;;20.97;13.77;;;;;;;;;;5013375;28;20404;-70
2022/01/23 04:07:55;;;;;;;19.73;11.80;;;;;;;;;;5011563;28;20467;-70
2022/01/23 04:10:23;;;;;;;21.00;12.27;;;;;;;;;;5004740;28;20801;-70
2022/01/23 04:15:32;;;;;;;25.27;13.50;;;;;;;;;;5003723;28;20483;-70
2022/01/23 04:34:11;;;;;;;18.40;13.07;;;;;;;;;;5013470;28;20450;-70
2022/01/23 04:45:18;;;;;;;18.13;10.60;;;;;;;;;;5013123;28;20383;-70
2022/01/23 05:04:10;;;;;;;18.17;10.20;;;;;;;;;;4996067;28;20482;-70
2022/01/23 05:06:49;;;;;;;15.67;10.00;;;;;;;;;;4993744;28;20777;-70
2022/01/23 05:09:16;;;;;;;18.90;11.10;;;;;;;;;;4993678;28;20436;-70
2022/01/23 05:11:52;;;;;;;14.97;10.30;;;;;;;;;;4993417;28;20912;-70
2022/01/23 05:14:21;;;;;;;12.73;8.97;;;;;;;;;;4993626;28;20754;-70
2022/01/23 05:16:47;;;;;;;17.93;9.23;;;;;;;;;;4993747;28;20439;-70
2022/01/23 05:19:13;;;;;;;16.27;10.37;;;;;;;;;;4992038;28;20431;-70
2022/01/23 05:24:16;;;;;;;15.30;9.37;;;;;;;;;;4997206;28;20455;-70
2022/01/23 05:26:45;;;;;;;15.20;10.40;;;;;;;;;;4996733;28;20897;-70
2022/01/23 05:29:12;;;;;;;15.80;10.40;;;;;;;;;;4996981;28;20484;-70
2022/01/23 05:31:38;;;;;;;14.73;10.43;;;;;;;;;;4996386;28;20448;-70
2022/01/23 05:34:04;;;;;;;14.10;9.60;;;;;;;;;;4996546;28;20437;-70
2022/01/23 05:36:30;;;;;;;13.50;9.40;;;;;;;;;;4996515;28;20463;-70
2022/01/23 05:38:56;;;;;;;16.63;11.13;;;;;;;;;;4996610;28;20885;-70
2022/01/23 05:41:22;;;;;;;14.90;9.10;;;;;;;;;;4996507;28;20792;-70
2022/01/23 05:43:49;;;;;;;15.77;10.13;;;;;;;;;;4996631;28;20411;-70
2022/01/23 05:46:16;;;;;;;15.30;10.97;;;;;;;;;;4996580;28;20458;-70
2022/01/23 05:48:42;;;;;;;16.50;9.67;;;;;;;;;;4996304;28;20460;-70
2022/01/23 05:51:12;;;;;;;13.40;9.10;;;;;;;;;;4996201;28;20417;-70
2022/01/23 05:53:38;;;;;;;14.20;9.50;;;;;;;;;;4996557;28;20436;-70
2022/01/23 05:56:05;;;;;;;15.00;9.43;;;;;;;;;;4996200;28;20420;-70
2022/01/23 05:58:31;;;;;;;13.43;9.20;;;;;;;;;;4996210;28;20419;-70
2022/01/23 06:00:57;;;;;;;15.13;9.17;;;;;;;;;;4996350;28;20487;-70
2022/01/23 06:03:23;;;;;;;12.97;9.27;;;;;;;;;;4996021;28;20944;-70
2022/01/23 06:05:49;;;;;;;17.00;9.37;;;;;;;;;;4996115;28;20409;-70
2022/01/23 06:08:15;;;;;;;12.20;9.47;;;;;;;;;;4995975;28;20451;-70
2022/01/23 06:11:14;;;;;;;19.13;9.70;;;;;;;;;;4995902;28;20495;-70
2022/01/23 06:13:33;;;;;;;17.70;11.10;;;;;;;;;;4995680;28;20416;-69
2022/01/23 06:15:59;;;;;;;15.37;10.90;;;;;;;;;;4995907;28;20848;-70
2022/01/23 06:18:26;;;;;;;14.73;10.07;;;;;;;;;;4994400;28;20427;-70
2022/01/23 06:20:52;;;;;;;17.53;11.30;;;;;;;;;;4995604;28;20917;-69
2022/01/23 06:23:18;;;;;;;16.17;9.97;;;;;;;;;;4995950;28;20405;-69
2022/01/23 06:25:46;;;;;;;15.40;9.30;;;;;;;;;;4995865;28;20508;-69
2022/01/23 06:28:15;;;;;;;18.80;11.20;;;;;;;;;;4995490;28;20460;-69
2022/01/23 06:30:41;;;;;;;14.67;9.93;;;;;;;;;;4995198;28;20494;-70
2022/01/23 06:33:07;;;;;;;16.70;10.83;;;;;;;;;;4995475;28;20400;-69
2022/01/23 06:35:35;;;;;;;17.73;10.40;;;;;;;;;;4995796;28;20401;-69
2022/01/23 06:38:02;;;;;;;15.50;10.23;;;;;;;;;;4995313;28;20898;-69
2022/01/23 06:40:28;;;;;;;17.60;11.00;;;;;;;;;;4995210;28;20400;-70
2022/01/23 06:42:54;;;;;;;14.50;10.07;;;;;;;;;;4995390;28;20479;-69
2022/01/23 06:45:20;;;;;;;14.77;11.43;;;;;;;;;;4995078;28;20948;-69
2022/01/23 06:47:46;;;;;;;18.67;12.10;;;;;;;;;;4995258;28;20407;-69
2022/01/23 06:50:12;;;;;;;20.00;11.60;;;;;;;;;;4994968;28;20424;-69
2022/01/23 06:52:38;;;;;;;20.37;13.23;;;;;;;;;;4995299;28;20475;-69
2022/01/23 06:55:04;;;;;;;16.97;11.37;;;;;;;;;;4993885;28;20421;-69
2022/01/23 06:57:30;;;;;;;18.13;12.43;;;;;;;;;;4995315;28;20500;-71
2022/01/23 06:59:56;;;;;;;17.03;12.30;;;;;;;;;;4995103;28;20416;-72
2022/01/23 07:02:22;;;;;;;18.83;12.17;;;;;;;;;;4994906;28;20461;-70
2022/01/23 07:04:48;;;;;;;21.40;12.80;;;;;;;;;;4995062;28;20404;-71
2022/01/23 07:07:14;;;;;;;18.00;11.13;;;;;;;;;;4995266;28;20408;-68
2022/01/23 07:09:40;;;;;;;20.03;12.20;;;;;;;;;;4995073;28;20487;-70
2022/01/23 07:12:07;;;;;;;16.83;11.27;;;;;;;;;;4994874;28;20421;-70
2022/01/23 07:14:33;;;;;;;16.40;11.20;;;;;;;;;;4995422;28;20435;-70
2022/01/23 07:16:59;;;;;;;20.50;13.33;;;;;;;;;;4995016;28;20483;-70
2022/01/23 07:19:25;;;;;;;16.70;11.20;;;;;;;;;;4995708;28;20435;-70
2022/01/23 07:21:51;;;;;;;18.50;13.13;;;;;;;;;;4994406;28;20472;-70
2022/01/23 07:24:19;;;;;;;18.27;12.33;;;;;;;;;;4994525;28;20435;-70
2022/01/23 07:26:45;;;;;;;20.00;12.40;;;;;;;;;;4994424;28;20514;-70
2022/01/23 07:29:11;;;;;;;18.33;12.30;;;;;;;;;;4994302;28;20468;-70
2022/01/23 07:34:05;;;;;;;18.43;13.07;;;;;;;;;;5014809;28;20752;-68
2022/01/23 07:36:31;;;;;;;18.53;11.63;;;;;;;;;;5014573;28;20430;-68
2022/01/23 07:38:57;;;;;;;17.00;11.67;;;;;;;;;;5014221;28;20431;-68
2022/01/23 07:41:23;;;;;;;16.37;11.80;;;;;;;;;;5014546;28;20424;-69
2022/01/23 07:43:49;;;;;;;16.53;11.87;;;;;;;;;;5012961;28;20442;-69
2022/01/23 07:46:16;;;;;;;15.90;10.40;;;;;;;;;;5014889;28;20399;-69
2022/01/23 07:48:42;;;;;;;18.60;12.00;;;;;;;;;;5014709;28;20459;-69
2022/01/23 07:51:08;;;;;;;17.87;12.23;;;;;;;;;;5014115;28;20823;-69
2022/01/23 07:53:34;;;;;;;19.47;12.20;;;;;;;;;;5014060;28;20424;-69
2022/01/23 07:56:00;;;;;;;15.40;11.07;;;;;;;;;;5013623;28;20478;-69
2022/01/23 07:58:26;;;;;;;16.37;11.20;;;;;;;;;;5013146;28;20450;-69
2022/01/23 08:00:52;;;;;;;16.53;12.33;;;;;;;;;;5013401;28;20408;-68
2022/01/23 08:03:18;;;;;;;16.83;11.90;;;;;;;;;;5014423;28;20407;-69
2022/01/23 08:05:44;;;;;;;19.00;11.50;;;;;;;;;;5013361;28;20415;-68
2022/01/23 08:08:10;;;;;;;18.87;11.77;;;;;;;;;;5013706;28;20471;-68
2022/01/23 08:10:37;;;;;;;19.37;12.83;;;;;;;;;;5013980;28;20391;-69
2022/01/23 08:13:03;;;;;;;18.60;11.67;;;;;;;;;;5014094;28;20408;-68
2022/01/23 08:15:38;;;;;;;18.33;13.23;;;;;;;;;;5013665;28;20400;-68
2022/01/23 08:18:06;;;;;;;18.63;12.23;;;;;;;;;;5012212;28;20418;-64
2022/01/23 08:20:33;;;;;;;18.83;11.93;;;;;;;;;;5013477;28;20414;-66
2022/01/23 08:23:01;;;;;;;19.57;12.03;;;;;;;;;;5013178;28;20439;-68
2022/01/23 08:25:27;;;;;;;18.50;12.80;;;;;;;;;;5014290;28;20423;-69
2022/01/23 08:27:53;;;;;;;18.17;13.20;;;;;;;;;;5013594;28;20407;-66
2022/01/23 08:30:20;;;;;;;17.90;12.37;;;;;;;;;;5013670;28;20404;-67
2022/01/23 08:32:46;;;;;;;16.83;12.53;;;;;;;;;;5012720;28;20438;-66
2022/01/23 08:35:12;;;;;;;18.60;12.73;;;;;;;;;;5018965;28;20486;-66
2022/01/23 08:37:38;;;;;;;20.13;13.30;;;;;;;;;;5017499;28;20973;-66
2022/01/23 08:40:05;;;;;;;16.67;12.93;;;;;;;;;;5014563;28;20403;-67
2022/01/23 08:42:31;;;;;;;18.00;12.90;;;;;;;;;;5012428;28;20518;-66
2022/01/23 08:44:57;;;;;;;18.00;12.73;;;;;;;;;;5013474;28;20798;-66
2022/01/23 08:47:23;;;;;;;21.07;14.23;;;;;;;;;;5013463;28;20772;-66
2022/01/23 08:49:51;;;;;;;18.47;12.97;;;;;;;;;;5012994;28;20454;-66
2022/01/23 08:52:19;;;;;;;21.40;14.70;;;;;;;;;;5013295;28;20507;-66
2022/01/23 08:54:48;;;;;;;24.83;14.83;;;;;;;;;;5014701;28;20477;-67
2022/01/23 08:57:14;;;;;;;21.63;14.20;;;;;;;;;;5016988;28;20773;-67
2022/01/23 08:59:40;;;;;;;22.23;13.30;;;;;;;;;;5016032;28;20424;-67
2022/01/23 09:02:09;;;;;;;19.27;13.40;;;;;;;;;;5016763;28;20459;-67
2022/01/23 09:04:35;;;;;;;19.23;13.87;;;;;;;;;;5016243;28;20424;-71
2022/01/23 09:07:01;;;;;;;18.47;13.10;;;;;;;;;;5016107;28;20431;-68
2022/01/23 09:09:31;;;;;;;23.43;12.60;;;;;;;;;;5016091;28;20451;-69
2022/01/23 09:12:10;;;;;;;19.17;13.33;;;;;;;;;;5013555;28;20443;-69
2022/01/23 09:14:36;;;;;;;22.03;12.77;;;;;;;;;;5014090;28;20419;-68
2022/01/23 09:17:03;;;;;;;18.17;12.80;;;;;;;;;;5016187;28;20451;-68
2022/01/23 09:19:29;;;;;;;22.63;14.80;;;;;;;;;;5016221;28;20423;-68
2022/01/23 09:21:56;;;;;;;19.00;12.60;;;;;;;;;;5016227;28;20447;-68
2022/01/23 09:24:23;;;;;;;21.47;14.63;;;;;;;;;;5016171;28;20451;-68
2022/01/23 09:26:55;;;;;;;21.10;13.37;;;;;;;;;;5015877;28;20443;-68
2022/01/23 09:30:05;;;;;;;22.23;14.57;;;;;;;;;;5015490;28;20923;-68
2022/01/23 09:32:16;;;;;;;19.17;13.27;;;;;;;;;;5012204;28;20520;-68
2022/01/23 09:34:43;;;;;;;23.30;14.50;;;;;;;;;;5015511;28;20893;-68
2022/01/23 09:37:11;;;;;;;18.80;12.40;;;;;;;;;;5012516;28;20418;-69
2022/01/23 09:39:38;;;;;;;20.57;13.90;;;;;;;;;;4993825;28;20514;-68
2022/01/23 09:42:06;;;;;;;22.50;13.47;;;;;;;;;;4994950;28;20433;-68
2022/01/23 09:44:38;;;;;;;18.33;13.40;;;;;;;;;;4996241;28;20440;-68
2022/01/23 09:47:04;;;;;;;20.57;15.00;;;;;;;;;;4996419;28;20448;-68
2022/01/23 09:49:31;;;;;;;18.23;12.57;;;;;;;;;;4996466;28;20460;-68
2022/01/23 09:51:59;;;;;;;22.57;15.20;;;;;;;;;;4996170;28;20432;-68
2022/01/23 09:54:26;;;;;;;24.70;17.97;;;;;;;;;;4996243;28;20404;-68
2022/01/23 09:56:52;;;;;;;29.10;17.90;;;;;;;;;;4996358;28;20409;-68
2022/01/23 09:59:19;;;;;;;23.73;16.50;;;;;;;;;;4996438;28;20492;-68
2022/01/23 10:01:48;;;;;;;16.00;12.70;;;;;;;;;;4995966;28;20432;-68
2022/01/23 10:04:14;;;;;;;19.53;13.77;;;;;;;;;;4996112;28;20412;-68
2022/01/23 10:06:40;;;;;;;20.47;13.73;;;;;;;;;;4995181;28;20520;-68
2022/01/23 10:09:07;;;;;;;20.03;13.60;;;;;;;;;;4995942;28;20456;-68
2022/01/23 10:11:37;;;;;;;17.97;12.77;;;;;;;;;;4995858;28;20520;-68
2022/01/23 10:14:03;;;;;;;17.03;12.93;;;;;;;;;;4996220;28;20385;-68
2022/01/23 10:16:31;;;;;;;17.93;12.07;;;;;;;;;;4995874;28;20459;-68
2022/01/23 10:18:58;;;;;;;21.27;13.43;;;;;;;;;;4996007;28;20768;-67
2022/01/23 10:21:24;;;;;;;15.93;12.70;;;;;;;;;;4995678;28;20492;-68
2022/01/23 10:23:51;;;;;;;19.80;13.60;;;;;;;;;;4995751;28;20879;-68
2022/01/23 10:26:48;;;;;;;17.97;12.93;;;;;;;;;;4995681;28;20413;-68
2022/01/23 10:29:21;;;;;;;20.03;12.33;;;;;;;;;;4984025;28;20468;-68
2022/01/23 10:32:06;;;;;;;16.27;13.60;;;;;;;;;;4995422;28;20456;-68
2022/01/23 10:34:46;;;;;;;19.27;13.90;;;;;;;;;;4995395;28;20933;-67
2022/01/23 10:37:13;;;;;;;18.30;12.23;;;;;;;;;;4995410;28;20897;-67
2022/01/23 10:39:43;;;;;;;16.50;11.67;;;;;;;;;;4995544;28;20408;-67
2022/01/23 10:42:29;;;;;;;17.83;12.63;;;;;;;;;;4995383;28;20433;-67
2022/01/23 10:47:49;;;;;;;19.53;13.83;;;;;;;;;;4995134;28;20384;-67
2022/01/23 10:50:15;;;;;;;19.70;13.23;;;;;;;;;;4995099;28;20513;-67
2022/01/23 10:52:47;;;;;;;20.33;14.20;;;;;;;;;;4995006;28;20429;-67
2022/01/23 10:55:13;;;;;;;18.10;13.30;;;;;;;;;;4994996;28;20381;-68
2022/01/23 10:57:43;;;;;;;20.10;13.40;;;;;;;;;;4995285;28;20409;-68
2022/01/23 11:00:21;;;;;;;15.20;11.20;;;;;;;;;;4995392;28;20405;-67
2022/01/23 11:02:47;;;;;;;15.60;11.50;;;;;;;;;;4994824;28;20431;-67
2022/01/23 11:05:15;;;;;;;16.87;11.83;;;;;;;;;;4995065;28;20412;-67
2022/01/23 11:07:43;;;;;;;16.70;10.83;;;;;;;;;;4994722;28;20404;-67
2022/01/23 11:10:14;;;;;;;16.50;11.47;;;;;;;;;;4994824;28;20824;-69
2022/01/23 11:17:55;;;;;;;17.87;13.00;;;;;;;;;;4993801;28;20424;-68
2022/01/23 11:20:33;;;;;;;17.93;14.00;;;;;;;;;;4995106;28;20856;-68
2022/01/23 11:23:17;;;;;;;17.73;12.27;;;;;;;;;;4994991;28;20436;-68
2022/01/23 11:25:45;;;;;;;15.43;11.83;;;;;;;;;;4994615;28;20770;-68
2022/01/23 11:28:11;;;;;;;20.50;13.43;;;;;;;;;;4994591;28;20412;-68
2022/01/23 11:30:39;;;;;;;15.10;10.93;;;;;;;;;;4994337;28;20483;-68
2022/01/23 11:33:07;;;;;;;19.13;12.10;;;;;;;;;;4994197;28;20776;-69
2022/01/23 11:35:33;;;;;;;18.53;13.37;;;;;;;;;;4992951;28;20913;-67
2022/01/23 11:38:00;;;;;;;16.00;11.93;;;;;;;;;;4994184;28;20409;-67
2022/01/23 11:40:41;;;;;;;15.70;11.90;;;;;;;;;;4994212;28;20401;-67
2022/01/23 11:53:56;;;;;;;16.80;12.30;;;;;;;;;;4994563;28;20393;-68
2022/01/23 11:56:29;;;;;;;13.63;9.97;;;;;;;;;;4994058;28;20403;-67
2022/01/23 11:59:12;;;;;;;14.33;10.33;;;;;;;;;;4994187;28;20400;-67
2022/01/23 12:01:40;;;;;;;13.70;9.70;;;;;;;;;;4993780;28;20428;-66
2022/01/23 12:04:09;;;;;;;18.07;12.20;;;;;;;;;;4993926;28;20407;-67
2022/01/23 12:06:37;;;;;;;15.40;10.63;;;;;;;;;;4993738;28;20488;-67
2022/01/23 12:09:16;;;;;;;19.07;12.07;;;;;;;;;;4993932;28;20890;-68
2022/01/23 12:12:03;;;;;;;15.57;11.90;;;;;;;;;;4994123;28;20778;-68
2022/01/23 12:17:05;;;;;;;17.80;12.63;;;;;;;;;;4994334;28;20468;-68
2022/01/23 12:19:32;;;;;;;15.00;10.37;;;;;;;;;;4993523;28;20413;-68
2022/01/23 12:22:00;;;;;;;16.30;11.80;;;;;;;;;;4993510;28;20427;-68
2022/01/23 12:24:26;;;;;;;16.90;10.77;;;;;;;;;;4993620;28;20464;-68
2022/01/23 12:27:12;;;;;;;14.80;11.47;;;;;;;;;;4993613;28;20432;-68
2022/01/23 12:29:39;;;;;;;16.60;12.03;;;;;;;;;;4995534;28;20460;-68
2022/01/23 12:32:17;;;;;;;19.63;12.87;;;;;;;;;;5007474;28;20992;-68
2022/01/23 12:34:48;;;;;;;18.90;12.70;;;;;;;;;;5012002;28;20480;-68
2022/01/23 12:37:14;;;;;;;17.83;12.60;;;;;;;;;;5014040;28;20492;-67
2022/01/23 12:39:40;;;;;;;16.37;12.50;;;;;;;;;;5015427;28;20413;-67
2022/01/23 12:42:06;;;;;;;15.70;12.13;;;;;;;;;;5014017;28;20452;-67
2022/01/23 12:44:33;;;;;;;18.60;13.00;;;;;;;;;;5002971;28;20909;-67
2022/01/23 12:47:03;;;;;;;15.03;11.10;;;;;;;;;;4997770;28;20475;-67
2022/01/23 12:49:29;;;;;;;19.43;12.80;;;;;;;;;;4997765;28;20451;-68
2022/01/23 12:52:08;;;;;;;16.07;11.17;;;;;;;;;;4997095;28;20435;-67
2022/01/23 12:54:50;;;;;;;17.57;12.17;;;;;;;;;;4997456;28;20825;-67
2022/01/23 12:57:16;;;;;;;20.17;13.47;;;;;;;;;;4997413;28;20404;-67
2022/01/23 12:59:50;;;;;;;20.97;13.87;;;;;;;;;;4997398;28;20817;-67
2022/01/23 13:02:18;;;;;;;18.97;13.70;;;;;;;;;;4997053;28;20507;-67
2022/01/23 13:04:49;;;;;;;21.37;15.00;;;;;;;;;;4997262;28;20783;-69
2022/01/23 13:07:26;;;;;;;20.30;13.97;;;;;;;;;;4996981;28;20495;-67
2022/01/23 13:12:46;;;;;;;18.80;12.83;;;;;;;;;;4997077;28;20416;-67
2022/01/23 13:15:25;;;;;;;19.90;13.20;;;;;;;;;;4996832;28;20896;-67
2022/01/23 13:32:31;;;;;;;14.40;9.10;;;;;;;;;;5016359;28;20439;-67
2022/01/23 13:35:04;;;;;;;14.90;10.10;;;;;;;;;;5016094;28;20402;-67
2022/01/23 13:37:32;;;;;;;14.73;9.53;;;;;;;;;;5016378;28;20392;-67
2022/01/23 13:40:03;;;;;;;15.70;10.93;;;;;;;;;;5015633;28;20900;-67
2022/01/23 13:59:37;;;;;;;19.50;11.43;;;;;;;;;;5012884;28;20423;-66
2022/01/23 14:04:36;;;;;;;14.57;9.80;;;;;;;;;;5015702;28;20390;-68
2022/01/23 14:07:03;;;;;;;14.20;9.13;;;;;;;;;;5015616;28;20399;-67
2022/01/23 14:09:29;;;;;;;12.27;7.90;;;;;;;;;;5015364;28;20447;-68
2022/01/23 14:11:55;;;;;;;14.10;8.67;;;;;;;;;;5015943;28;20426;-68
2022/01/23 14:14:26;;;;;;;14.10;9.10;;;;;;;;;;5015468;28;20411;-68
2022/01/23 14:16:53;;;;;;;11.23;8.00;;;;;;;;;;5015222;28;20810;-68
2022/01/23 14:19:24;;;;;;;12.17;8.80;;;;;;;;;;5015382;28;20443;-68
2022/01/23 14:21:51;;;;;;;13.67;8.90;;;;;;;;;;5015248;28;20419;-67
2022/01/23 14:24:21;;;;;;;13.67;9.60;;;;;;;;;;5015177;28;20410;-67
2022/01/23 14:27:09;;;;;;;10.47;7.30;;;;;;;;;;5014960;28;20408;-67
2022/01/23 14:29:48;;;;;;;12.30;7.90;;;;;;;;;;5015279;28;20458;-67
2022/01/23 14:32:29;;;;;;;11.37;7.70;;;;;;;;;;5014999;28;20442;-67
2022/01/23 14:35:05;;;;;;;12.13;7.70;;;;;;;;;;5015400;28;20453;-67
2022/01/23 14:37:31;;;;;;;12.10;8.40;;;;;;;;;;5014908;28;20399;-67
2022/01/23 14:40:30;;;;;;;15.40;10.20;;;;;;;;;;5013319;28;20478;-67
2022/01/23 14:42:57;;;;;;;14.97;10.50;;;;;;;;;;4963813;28;20563;-65
2022/01/23 14:45:23;;;;;;;15.03;11.87;;;;;;;;;;5014390;28;20430;-65
2022/01/23 14:47:49;;;;;;;15.40;11.20;;;;;;;;;;5014253;28;20419;-65
2022/01/23 14:50:18;;;;;;;14.30;10.37;;;;;;;;;;5014278;28;20463;-65
2022/01/23 14:52:45;;;;;;;13.97;9.27;;;;;;;;;;5029703;23;20436;-80
2022/01/23 14:55:11;;;;;;;16.60;11.60;;;;;;;;;;5010198;28;20550;-81
2022/01/23 14:57:40;;;;;;;16.67;10.53;;;;;;;;;;5016277;28;20551;-82
2022/01/23 15:00:07;;;;;;;17.27;11.47;;;;;;;;;;4989227;28;20477;-82
2022/01/23 15:02:33;;;;;;;16.40;11.47;;;;;;;;;;4979404;28;20413;-81
2022/01/23 15:05:02;;;;;;;17.37;11.80;;;;;;;;;;4979372;28;20497;-80
2022/01/23 15:07:33;;;;;;;17.30;12.40;;;;;;;;;;4980872;28;20406;-81
2022/01/23 15:09:59;;;;;;;21.23;13.10;;;;;;;;;;4979185;28;20489;-81
2022/01/23 15:12:25;;;;;;;21.97;14.00;;;;;;;;;;4981353;28;20397;-81
2022/01/23 15:14:52;;;;;;;19.00;12.60;;;;;;;;;;4981607;28;20437;-81
2022/01/23 15:17:20;;;;;;;23.90;15.77;;;;;;;;;;4981927;28;20401;-81
2022/01/23 15:19:47;;;;;;;19.83;13.50;;;;;;;;;;4981718;28;20440;-81
2022/01/23 15:22:13;;;;;;;20.80;13.20;;;;;;;;;;4980962;28;20397;-81
2022/01/23 15:24:39;;;;;;;19.57;14.20;;;;;;;;;;4981509;28;20464;-81
2022/01/23 15:27:05;;;;;;;17.60;13.00;;;;;;;;;;4979904;28;20417;-81
2022/01/23 15:29:31;;;;;;;20.13;12.60;;;;;;;;;;4980987;28;20508;-81
2022/01/23 15:31:58;;;;;;;17.97;12.47;;;;;;;;;;4981028;28;20460;-82
2022/01/23 15:34:24;;;;;;;19.33;13.33;;;;;;;;;;4980292;28;20934;-81
2022/01/23 15:36:53;;;;;;;19.80;13.03;;;;;;;;;;4980167;28;20474;-82
2022/01/23 15:39:20;;;;;;;18.20;13.77;;;;;;;;;;4982012;28;20429;-82
2022/01/23 15:41:46;;;;;;;21.70;13.23;;;;;;;;;;4979474;28;20935;-82
2022/01/23 15:44:12;;;;;;;19.60;14.13;;;;;;;;;;4981503;28;20398;-82
2022/01/23 15:46:38;;;;;;;16.70;12.30;;;;;;;;;;4980100;28;20401;-82
2022/01/23 15:49:05;;;;;;;22.13;13.30;;;;;;;;;;4980368;28;20513;-82
2022/01/23 15:51:31;;;;;;;17.93;12.40;;;;;;;;;;4980101;28;20421;-82
2022/01/23 15:53:57;;;;;;;18.27;12.67;;;;;;;;;;4981312;28;20424;-82
2022/01/23 15:56:23;;;;;;;22.20;12.27;;;;;;;;;;4981364;28;20405;-82
2022/01/23 15:58:49;;;;;;;19.60;12.73;;;;;;;;;;4980270;28;20413;-81
2022/01/23 16:01:15;;;;;;;20.53;13.43;;;;;;;;;;4980898;28;20785;-82
2022/01/23 16:03:41;;;;;;;18.70;13.33;;;;;;;;;;4978826;28;20512;-81
2022/01/23 16:06:08;;;;;;;17.77;12.27;;;;;;;;;;4978944;28;20445;-81
2022/01/23 16:08:35;;;;;;;20.60;13.60;;;;;;;;;;4978487;28;20518;-82
2022/01/23 16:11:02;;;;;;;22.00;13.30;;;;;;;;;;4979120;28;20847;-82
2022/01/23 16:13:30;;;;;;;19.23;12.70;;;;;;;;;;4979036;28;20905;-82
2022/01/23 16:15:57;;;;;;;20.80;13.83;;;;;;;;;;4980994;28;20798;-82
2022/01/23 16:18:23;;;;;;;20.80;12.80;;;;;;;;;;4981108;28;20487;-82
2022/01/23 16:20:49;;;;;;;18.50;12.97;;;;;;;;;;4979445;28;20421;-82
2022/01/23 16:23:15;;;;;;;17.37;11.47;;;;;;;;;;4980331;28;20440;-82
2022/01/23 16:25:41;;;;;;;18.10;12.37;;;;;;;;;;4980105;28;20413;-82
2022/01/23 16:28:07;;;;;;;17.00;12.00;;;;;;;;;;4979816;28;20405;-82
2022/01/23 16:30:59;;;;;;;21.40;13.10;;;;;;;;;;4979436;28;20441;-81
2022/01/23 16:33:26;;;;;;;17.70;10.70;;;;;;;;;;4978287;28;20766;-82
2022/01/23 16:35:54;;;;;;;22.30;14.47;;;;;;;;;;4980086;28;20410;-82
2022/01/23 16:38:20;;;;;;;19.50;12.10;;;;;;;;;;4978566;28;20416;-82
2022/01/23 16:40:47;;;;;;;20.33;13.77;;;;;;;;;;4979186;28;20837;-82
2022/01/23 16:43:14;;;;;;;22.37;13.67;;;;;;;;;;4979283;28;20409;-82
2022/01/23 16:45:40;;;;;;;18.80;11.90;;;;;;;;;;4979063;28;20463;-81
2022/01/23 16:48:07;;;;;;;18.70;12.70;;;;;;;;;;4978900;28;20421;-81
2022/01/23 16:50:33;;;;;;;20.43;13.20;;;;;;;;;;4979567;28;20481;-81
2022/01/23 16:53:00;;;;;;;21.57;12.83;;;;;;;;;;4978306;28;21066;-82
2022/01/23 16:55:26;;;;;;;17.60;12.53;;;;;;;;;;4979686;28;20742;-82
2022/01/23 16:57:52;;;;;;;19.20;13.20;;;;;;;;;;4978911;28;20401;-82
2022/01/23 17:00:18;;;;;;;20.73;12.27;;;;;;;;;;4979469;28;20437;-81
2022/01/23 17:02:46;;;;;;;20.50;12.40;;;;;;;;;;4977755;28;20425;-82
2022/01/23 17:05:12;;;;;;;17.07;12.30;;;;;;;;;;4977837;28;20456;-82
2022/01/23 17:07:38;;;;;;;17.33;12.87;;;;;;;;;;4979122;28;20497;-83
2022/01/23 17:10:06;;;;;;;19.17;12.17;;;;;;;;;;4977338;28;20526;-82
2022/01/23 17:12:32;;;;;;;19.93;13.67;;;;;;;;;;4981895;28;20408;-82
2022/01/23 17:14:58;;;;;;;20.50;12.90;;;;;;;;;;4984526;28;20890;-81
2022/01/23 17:17:25;;;;;;;18.33;12.03;;;;;;;;;;4983206;28;20436;-81
2022/01/23 17:19:52;;;;;;;15.60;12.00;;;;;;;;;;4981761;28;20437;-82
2022/01/23 17:22:18;;;;;;;20.70;13.23;;;;;;;;;;4987002;28;20488;-81
2022/01/23 17:24:44;;;;;;;19.03;13.10;;;;;;;;;;4987925;28;20415;-81
2022/01/23 17:27:11;;;;;;;17.67;11.73;;;;;;;;;;4982972;28;20477;-81
2022/01/23 17:29:37;;;;;;;19.93;13.20;;;;;;;;;;4982832;28;20479;-81
2022/01/23 17:32:04;;;;;;;23.13;13.43;;;;;;;;;;4981542;28;20421;-81
2022/01/23 17:34:30;;;;;;;20.67;13.50;;;;;;;;;;4982540;28;20455;-81
2022/01/23 17:36:56;;;;;;;26.50;15.90;;;;;;;;;;4983171;28;20424;-81
2022/01/23 17:39:23;;;;;;;22.80;15.50;;;;;;;;;;4983766;28;20429;-81
2022/01/23 17:41:51;;;;;;;23.07;15.10;;;;;;;;;;4984630;28;20412;-82
2022/01/23 17:44:17;;;;;;;22.30;14.67;;;;;;;;;;4981784;28;20440;-82
2022/01/23 17:46:45;;;;;;;22.63;15.03;;;;;;;;;;4983095;28;20405;-81
2022/01/23 17:49:21;;;;;;;21.10;13.70;;;;;;;;;;4982431;28;20552;-81
2022/01/23 17:51:47;;;;;;;19.00;13.07;;;;;;;;;;4983187;28;20409;-81
2022/01/23 17:54:14;;;;;;;20.83;14.47;;;;;;;;;;4981504;28;20433;-82
2022/01/23 17:56:43;;;;;;;19.30;12.67;;;;;;;;;;4982529;28;20417;-81
2022/01/23 17:59:09;;;;;;;17.80;13.00;;;;;;;;;;4982403;28;20452;-82
2022/01/23 18:01:35;;;;;;;16.90;10.93;;;;;;;;;;4981907;28;20413;-82
2022/01/23 18:04:01;;;;;;;14.17;9.93;;;;;;;;;;4981758;28;20794;-82
2022/01/23 18:06:30;;;;;;;14.90;10.50;;;;;;;;;;4982670;28;20414;-82
2022/01/23 18:08:58;;;;;;;10.67;7.03;;;;;;;;;;4981719;28;20462;-82